sensor_id;sensor_type;location;lat;lon;timestamp;P1;durP1;ratioP1;P2;durP2;ratioP2
14153;SDS011;7157;53.144;7.570;2023-02-28T00:04:28;8.95;;;2.58;;
14153;SDS011;7157;53.144;7.570;2023-02-28T00:14:33;5.00;;;2.63;;
14153;SDS011;7157;53.144;7.570;2023-02-28T00:24:35;7.07;;;2.72;;
14153;SDS011;7157;53.144;7.570;2023-02-28T00:34:39;7.40;;;2.45;;
14153;SDS011;7157;53.144;7.570;2023-02-28T00:44:42;6.28;;;1.90;;
14153;SDS011;7157;53.144;7.570;2023-02-28T00:54:46;8.55;;;3.08;;
14153;SDS011;7157;53.144;7.570;2023-02-28T01:04:49;5.85;;;2.30;;
14153;SDS011;7157;53.144;7.570;2023-02-28T01:14:53;8.55;;;2.67;;
14153;SDS011;7157;53.144;7.570;2023-02-28T01:24:55;6.95;;;2.90;;
14153;SDS011;7157;53.144;7.570;2023-02-28T01:34:59;8.65;;;3.03;;
14153;SDS011;7157;53.144;7.570;2023-02-28T01:45:04;5.60;;;2.83;;
14153;SDS011;7157;53.144;7.570;2023-02-28T01:55:21;6.68;;;2.58;;
14153;SDS011;7157;53.144;7.570;2023-02-28T02:05:30;4.72;;;2.65;;
14153;SDS011;7157;53.144;7.570;2023-02-28T02:15:35;6.82;;;3.10;;
14153;SDS011;7157;53.144;7.570;2023-02-28T02:25:44;7.47;;;3.10;;
14153;SDS011;7157;53.144;7.570;2023-02-28T02:35:53;6.70;;;2.70;;
14153;SDS011;7157;53.144;7.570;2023-02-28T02:45:59;5.85;;;2.97;;
14153;SDS011;7157;53.144;7.570;2023-02-28T02:56:06;8.95;;;3.42;;
14153;SDS011;7157;53.144;7.570;2023-02-28T03:06:10;8.80;;;3.13;;
14153;SDS011;7157;53.144;7.570;2023-02-28T03:16:26;8.23;;;2.95;;
14153;SDS011;7157;53.144;7.570;2023-02-28T03:26:36;6.95;;;3.15;;
14153;SDS011;7157;53.144;7.570;2023-02-28T03:36:46;7.00;;;3.22;;
14153;SDS011;7157;53.144;7.570;2023-02-28T03:46:56;8.27;;;3.97;;
14153;SDS011;7157;53.144;7.570;2023-02-28T03:57:04;8.95;;;4.05;;
14153;SDS011;7157;53.144;7.570;2023-02-28T04:07:12;7.53;;;3.40;;
14153;SDS011;7157;53.144;7.570;2023-02-28T04:17:16;11.15;;;3.90;;
14153;SDS011;7157;53.144;7.570;2023-02-28T04:27:19;14.38;;;4.03;;
14153;SDS011;7157;53.144;7.570;2023-02-28T04:37:23;7.82;;;3.80;;
14153;SDS011;7157;53.144;7.570;2023-02-28T04:47:29;7.22;;;3.80;;
14153;SDS011;7157;53.144;7.570;2023-02-28T04:57:33;8.05;;;3.72;;
14153;SDS011;7157;53.144;7.570;2023-02-28T05:07:36;7.97;;;4.20;;
14153;SDS011;7157;53.144;7.570;2023-02-28T05:17:40;8.95;;;3.95;;
14153;SDS011;7157;53.144;7.570;2023-02-28T05:27:43;12.70;;;3.88;;
14153;SDS011;7157;53.144;7.570;2023-02-28T05:37:47;7.57;;;3.45;;
14153;SDS011;7157;53.144;7.570;2023-02-28T05:47:52;11.50;;;4.00;;
14153;SDS011;7157;53.144;7.570;2023-02-28T05:57:57;6.90;;;3.45;;
14153;SDS011;7157;53.144;7.570;2023-02-28T06:08:00;8.38;;;3.63;;
14153;SDS011;7157;53.144;7.570;2023-02-28T06:18:04;9.60;;;5.60;;
14153;SDS011;7157;53.144;7.570;2023-02-28T06:28:06;6.85;;;4.07;;
14153;SDS011;7157;53.144;7.570;2023-02-28T06:38:11;9.27;;;3.90;;
14153;SDS011;7157;53.144;7.570;2023-02-28T06:48:13;19.58;;;8.82;;
14153;SDS011;7157;53.144;7.570;2023-02-28T06:58:17;8.27;;;4.30;;
14153;SDS011;7157;53.144;7.570;2023-02-28T07:08:20;8.18;;;4.10;;
14153;SDS011;7157;53.144;7.570;2023-02-28T07:18:24;14.35;;;4.78;;
14153;SDS011;7157;53.144;7.570;2023-02-28T07:28:27;8.57;;;5.07;;
14153;SDS011;7157;53.144;7.570;2023-02-28T07:38:32;13.75;;;5.30;;
14153;SDS011;7157;53.144;7.570;2023-02-28T07:48:36;9.40;;;5.03;;
14153;SDS011;7157;53.144;7.570;2023-02-28T07:58:40;16.83;;;6.78;;
14153;SDS011;7157;53.144;7.570;2023-02-28T08:08:43;11.82;;;6.38;;
14153;SDS011;7157;53.144;7.570;2023-02-28T08:18:47;11.27;;;5.13;;
14153;SDS011;7157;53.144;7.570;2023-02-28T08:28:50;11.38;;;6.32;;
14153;SDS011;7157;53.144;7.570;2023-02-28T08:38:54;12.85;;;6.53;;
14153;SDS011;7157;53.144;7.570;2023-02-28T08:48:58;10.90;;;6.50;;
14153;SDS011;7157;53.144;7.570;2023-02-28T08:59:03;11.23;;;6.15;;
14153;SDS011;7157;53.144;7.570;2023-02-28T09:09:06;19.75;;;6.70;;
14153;SDS011;7157;53.144;7.570;2023-02-28T09:19:12;12.13;;;6.95;;
14153;SDS011;7157;53.144;7.570;2023-02-28T09:29:15;12.38;;;6.13;;
14153;SDS011;7157;53.144;7.570;2023-02-28T09:39:20;12.77;;;5.95;;
14153;SDS011;7157;53.144;7.570;2023-02-28T09:49:24;8.25;;;4.65;;
14153;SDS011;7157;53.144;7.570;2023-02-28T09:59:39;12.32;;;4.47;;
14153;SDS011;7157;53.144;7.570;2023-02-28T10:09:47;7.90;;;4.22;;
14153;SDS011;7157;53.144;7.570;2023-02-28T10:19:58;9.93;;;4.40;;
14153;SDS011;7157;53.144;7.570;2023-02-28T10:30:09;4.78;;;3.00;;
14153;SDS011;7157;53.144;7.570;2023-02-28T10:40:32;5.03;;;2.70;;
14153;SDS011;7157;53.144;7.570;2023-02-28T10:50:37;5.00;;;2.90;;
14153;SDS011;7157;53.144;7.570;2023-02-28T11:00:46;4.85;;;2.20;;
14153;SDS011;7157;53.144;7.570;2023-02-28T11:10:53;4.97;;;2.20;;
14153;SDS011;7157;53.144;7.570;2023-02-28T11:20:59;4.32;;;2.47;;
14153;SDS011;7157;53.144;7.570;2023-02-28T11:31:05;6.18;;;2.30;;
14153;SDS011;7157;53.144;7.570;2023-02-28T11:41:21;4.88;;;2.47;;
14153;SDS011;7157;53.144;7.570;2023-02-28T11:51:44;6.22;;;2.30;;
14153;SDS011;7157;53.144;7.570;2023-02-28T12:02:02;3.50;;;1.85;;
14153;SDS011;7157;53.144;7.570;2023-02-28T12:12:12;4.68;;;2.03;;
14153;SDS011;7157;53.144;7.570;2023-02-28T12:22:30;7.00;;;2.08;;
14153;SDS011;7157;53.144;7.570;2023-02-28T12:32:36;5.18;;;1.83;;
14153;SDS011;7157;53.144;7.570;2023-02-28T12:42:45;3.67;;;1.70;;
14153;SDS011;7157;53.144;7.570;2023-02-28T12:52:52;4.18;;;1.80;;
14153;SDS011;7157;53.144;7.570;2023-02-28T13:03:09;3.08;;;1.80;;
14153;SDS011;7157;53.144;7.570;2023-02-28T13:13:34;5.43;;;2.58;;
14153;SDS011;7157;53.144;7.570;2023-02-28T13:23:40;3.78;;;2.20;;
14153;SDS011;7157;53.144;7.570;2023-02-28T13:34:13;5.05;;;2.55;;
14153;SDS011;7157;53.144;7.570;2023-02-28T13:44:19;4.82;;;2.20;;
14153;SDS011;7157;53.144;7.570;2023-02-28T13:54:28;4.85;;;2.35;;
14153;SDS011;7157;53.144;7.570;2023-02-28T14:04:49;5.18;;;2.25;;
14153;SDS011;7157;53.144;7.570;2023-02-28T14:15:00;4.38;;;2.15;;
14153;SDS011;7157;53.144;7.570;2023-02-28T14:25:07;4.15;;;2.10;;
14153;SDS011;7157;53.144;7.570;2023-02-28T14:35:19;4.68;;;1.95;;
14153;SDS011;7157;53.144;7.570;2023-02-28T14:45:38;5.88;;;1.58;;
14153;SDS011;7157;53.144;7.570;2023-02-28T14:55:43;5.05;;;2.13;;
14153;SDS011;7157;53.144;7.570;2023-02-28T15:05:52;5.13;;;2.30;;
14153;SDS011;7157;53.144;7.570;2023-02-28T15:15:56;3.83;;;2.30;;
14153;SDS011;7157;53.144;7.570;2023-02-28T15:26:05;4.30;;;2.35;;
14153;SDS011;7157;53.144;7.570;2023-02-28T15:36:12;4.60;;;2.08;;
14153;SDS011;7157;53.144;7.570;2023-02-28T15:46:20;4.40;;;1.80;;
14153;SDS011;7157;53.144;7.570;2023-02-28T15:56:23;5.38;;;2.28;;
14153;SDS011;7157;53.144;7.570;2023-02-28T16:06:33;10.98;;;2.67;;
14153;SDS011;7157;53.144;7.570;2023-02-28T16:16:44;6.28;;;3.10;;
14153;SDS011;7157;53.144;7.570;2023-02-28T16:26:50;11.15;;;4.88;;
14153;SDS011;7157;53.144;7.570;2023-02-28T16:36:55;4.68;;;2.40;;
14153;SDS011;7157;53.144;7.570;2023-02-28T16:47:00;5.30;;;2.38;;
14153;SDS011;7157;53.144;7.570;2023-02-28T16:57:04;4.40;;;2.33;;
14153;SDS011;7157;53.144;7.570;2023-02-28T17:07:10;8.25;;;3.10;;
14153;SDS011;7157;53.144;7.570;2023-02-28T17:17:15;14.15;;;5.35;;
14153;SDS011;7157;53.144;7.570;2023-02-28T17:27:21;6.68;;;2.65;;
14153;SDS011;7157;53.144;7.570;2023-02-28T17:37:24;7.13;;;3.53;;
14153;SDS011;7157;53.144;7.570;2023-02-28T17:47:28;4.28;;;2.55;;
14153;SDS011;7157;53.144;7.570;2023-02-28T17:57:30;4.43;;;2.15;;
14153;SDS011;7157;53.144;7.570;2023-02-28T18:07:34;7.82;;;3.33;;
14153;SDS011;7157;53.144;7.570;2023-02-28T18:17:39;6.30;;;3.10;;
14153;SDS011;7157;53.144;7.570;2023-02-28T18:27:43;5.97;;;3.00;;
14153;SDS011;7157;53.144;7.570;2023-02-28T18:37:59;12.50;;;3.85;;
14153;SDS011;7157;53.144;7.570;2023-02-28T18:48:04;9.82;;;3.92;;
14153;SDS011;7157;53.144;7.570;2023-02-28T18:58:07;8.40;;;3.95;;
14153;SDS011;7157;53.144;7.570;2023-02-28T19:08:11;10.70;;;3.65;;
14153;SDS011;7157;53.144;7.570;2023-02-28T19:18:14;7.07;;;3.08;;
14153;SDS011;7157;53.144;7.570;2023-02-28T19:28:18;5.35;;;2.63;;
14153;SDS011;7157;53.144;7.570;2023-02-28T19:38:21;5.47;;;2.95;;
14153;SDS011;7157;53.144;7.570;2023-02-28T19:48:25;7.78;;;3.25;;
14153;SDS011;7157;53.144;7.570;2023-02-28T19:58:30;7.45;;;3.78;;
14153;SDS011;7157;53.144;7.570;2023-02-28T20:08:34;6.95;;;3.50;;
14153;SDS011;7157;53.144;7.570;2023-02-28T20:18:38;4.72;;;2.70;;
14153;SDS011;7157;53.144;7.570;2023-02-28T20:28:43;8.55;;;2.97;;
14153;SDS011;7157;53.144;7.570;2023-02-28T20:38:45;7.07;;;3.03;;
14153;SDS011;7157;53.144;7.570;2023-02-28T20:48:50;10.95;;;3.30;;
14153;SDS011;7157;53.144;7.570;2023-02-28T20:58:53;5.90;;;3.35;;
14153;SDS011;7157;53.144;7.570;2023-02-28T21:08:58;6.25;;;3.30;;
14153;SDS011;7157;53.144;7.570;2023-02-28T21:19:01;5.78;;;3.17;;
14153;SDS011;7157;53.144;7.570;2023-02-28T21:29:06;10.45;;;4.50;;
14153;SDS011;7157;53.144;7.570;2023-02-28T21:39:11;8.00;;;3.83;;
14153;SDS011;7157;53.144;7.570;2023-02-28T21:49:18;11.07;;;3.88;;
14153;SDS011;7157;53.144;7.570;2023-02-28T21:59:20;7.88;;;4.38;;
14153;SDS011;7157;53.144;7.570;2023-02-28T22:09:24;6.65;;;3.58;;
14153;SDS011;7157;53.144;7.570;2023-02-28T22:19:27;7.38;;;3.50;;
14153;SDS011;7157;53.144;7.570;2023-02-28T22:29:31;7.13;;;3.58;;
14153;SDS011;7157;53.144;7.570;2023-02-28T22:39:34;7.65;;;4.15;;
14153;SDS011;7157;53.144;7.570;2023-02-28T22:49:38;9.85;;;4.20;;
14153;SDS011;7157;53.144;7.570;2023-02-28T22:59:41;8.52;;;3.95;;
14153;SDS011;7157;53.144;7.570;2023-02-28T23:09:45;6.38;;;3.47;;
14153;SDS011;7157;53.144;7.570;2023-02-28T23:19:50;7.35;;;3.88;;
14153;SDS011;7157;53.144;7.570;2023-02-28T23:29:54;10.80;;;3.95;;
14153;SDS011;7157;53.144;7.570;2023-02-28T23:39:57;8.38;;;4.32;;
14153;SDS011;7157;53.144;7.570;2023-02-28T23:50:02;6.47;;;3.95;;
